sensor_id;sensor_type;location;lat;lon;timestamp;P1;durP1;ratioP1;P2;durP2;ratioP2
3789;SDS011;1910;49.042;9.028;2023-11-19T00:00:42;2.80;;;2.03;;
3789;SDS011;1910;49.042;9.028;2023-11-19T00:03:07;2.43;;;1.00;;
3789;SDS011;1910;49.042;9.028;2023-11-19T00:05:33;1.40;;;1.00;;
3789;SDS011;1910;49.042;9.028;2023-11-19T00:07:59;5.60;;;2.70;;
3789;SDS011;1910;49.042;9.028;2023-11-19T00:10:24;2.47;;;2.13;;
3789;SDS011;1910;49.042;9.028;2023-11-19T00:12:52;1.90;;;1.20;;
3789;SDS011;1910;49.042;9.028;2023-11-19T00:15:19;2.08;;;1.60;;
3789;SDS011;1910;49.042;9.028;2023-11-19T00:17:45;2.50;;;1.80;;
3789;SDS011;1910;49.042;9.028;2023-11-19T00:20:14;3.88;;;1.60;;
3789;SDS011;1910;49.042;9.028;2023-11-19T00:22:41;2.35;;;2.08;;
3789;SDS011;1910;49.042;9.028;2023-11-19T00:25:07;3.97;;;1.55;;
3789;SDS011;1910;49.042;9.028;2023-11-19T00:27:33;1.55;;;1.05;;
3789;SDS011;1910;49.042;9.028;2023-11-19T00:29:59;2.70;;;1.07;;
3789;SDS011;1910;49.042;9.028;2023-11-19T00:32:25;4.27;;;1.23;;
3789;SDS011;1910;49.042;9.028;2023-11-19T00:34:50;2.53;;;1.83;;
3789;SDS011;1910;49.042;9.028;2023-11-19T00:37:16;1.83;;;1.20;;
3789;SDS011;1910;49.042;9.028;2023-11-19T00:39:44;1.43;;;1.17;;
3789;SDS011;1910;49.042;9.028;2023-11-19T00:44:42;2.78;;;1.48;;
3789;SDS011;1910;49.042;9.028;2023-11-19T00:47:08;3.22;;;1.50;;
3789;SDS011;1910;49.042;9.028;2023-11-19T00:49:37;4.20;;;2.13;;
3789;SDS011;1910;49.042;9.028;2023-11-19T00:52:03;4.25;;;2.28;;
3789;SDS011;1910;49.042;9.028;2023-11-19T00:54:30;5.03;;;2.20;;
3789;SDS011;1910;49.042;9.028;2023-11-19T00:56:55;4.80;;;3.00;;
3789;SDS011;1910;49.042;9.028;2023-11-19T00:59:21;2.20;;;2.00;;
3789;SDS011;1910;49.042;9.028;2023-11-19T01:01:47;5.27;;;3.10;;
3789;SDS011;1910;49.042;9.028;2023-11-19T01:04:14;4.30;;;2.90;;
3789;SDS011;1910;49.042;9.028;2023-11-19T01:06:40;5.85;;;3.63;;
3789;SDS011;1910;49.042;9.028;2023-11-19T01:09:07;2.80;;;1.95;;
3789;SDS011;1910;49.042;9.028;2023-11-19T01:11:33;3.97;;;2.60;;
3789;SDS011;1910;49.042;9.028;2023-11-19T01:13:59;5.60;;;2.77;;
3789;SDS011;1910;49.042;9.028;2023-11-19T01:16:25;4.40;;;2.23;;
3789;SDS011;1910;49.042;9.028;2023-11-19T01:18:51;4.00;;;2.78;;
3789;SDS011;1910;49.042;9.028;2023-11-19T01:21:17;7.50;;;4.53;;
3789;SDS011;1910;49.042;9.028;2023-11-19T01:23:43;20.10;;;3.40;;
3789;SDS011;1910;49.042;9.028;2023-11-19T01:26:12;8.03;;;2.30;;
3789;SDS011;1910;49.042;9.028;2023-11-19T01:28:38;20.25;;;3.05;;
3789;SDS011;1910;49.042;9.028;2023-11-19T01:31:09;2.60;;;2.15;;
3789;SDS011;1910;49.042;9.028;2023-11-19T01:33:36;6.78;;;2.65;;
3789;SDS011;1910;49.042;9.028;2023-11-19T01:36:02;2.30;;;1.80;;
3789;SDS011;1910;49.042;9.028;2023-11-19T01:38:29;6.75;;;2.35;;
3789;SDS011;1910;49.042;9.028;2023-11-19T01:40:56;6.10;;;2.30;;
3789;SDS011;1910;49.042;9.028;2023-11-19T01:43:35;5.45;;;2.83;;
3789;SDS011;1910;49.042;9.028;2023-11-19T01:46:02;2.78;;;2.28;;
3789;SDS011;1910;49.042;9.028;2023-11-19T01:48:31;2.45;;;2.10;;
3789;SDS011;1910;49.042;9.028;2023-11-19T01:50:59;3.97;;;2.60;;
3789;SDS011;1910;49.042;9.028;2023-11-19T01:53:27;3.17;;;2.33;;
3789;SDS011;1910;49.042;9.028;2023-11-19T01:55:53;4.40;;;3.03;;
3789;SDS011;1910;49.042;9.028;2023-11-19T01:58:19;7.57;;;3.13;;
3789;SDS011;1910;49.042;9.028;2023-11-19T02:00:45;7.03;;;3.47;;
3789;SDS011;1910;49.042;9.028;2023-11-19T02:03:11;3.88;;;2.58;;
3789;SDS011;1910;49.042;9.028;2023-11-19T02:05:37;2.50;;;2.17;;
3789;SDS011;1910;49.042;9.028;2023-11-19T02:08:04;4.43;;;2.40;;
3789;SDS011;1910;49.042;9.028;2023-11-19T02:10:30;5.17;;;2.10;;
3789;SDS011;1910;49.042;9.028;2023-11-19T02:12:56;4.35;;;2.65;;
3789;SDS011;1910;49.042;9.028;2023-11-19T02:15:22;3.17;;;2.88;;
3789;SDS011;1910;49.042;9.028;2023-11-19T02:17:49;5.00;;;3.20;;
3789;SDS011;1910;49.042;9.028;2023-11-19T02:20:17;8.15;;;2.10;;
3789;SDS011;1910;49.042;9.028;2023-11-19T02:22:45;4.78;;;2.20;;
3789;SDS011;1910;49.042;9.028;2023-11-19T02:25:33;4.53;;;2.25;;
3789;SDS011;1910;49.042;9.028;2023-11-19T02:27:59;3.22;;;1.98;;
3789;SDS011;1910;49.042;9.028;2023-11-19T02:30:26;5.05;;;2.80;;
3789;SDS011;1910;49.042;9.028;2023-11-19T02:32:53;5.30;;;2.05;;
3789;SDS011;1910;49.042;9.028;2023-11-19T02:35:22;5.40;;;2.65;;
3789;SDS011;1910;49.042;9.028;2023-11-19T02:37:48;3.28;;;2.47;;
3789;SDS011;1910;49.042;9.028;2023-11-19T02:40:14;2.67;;;2.33;;
3789;SDS011;1910;49.042;9.028;2023-11-19T02:42:39;3.37;;;1.90;;
3789;SDS011;1910;49.042;9.028;2023-11-19T02:45:05;2.07;;;1.47;;
3789;SDS011;1910;49.042;9.028;2023-11-19T02:47:32;3.83;;;2.40;;
3789;SDS011;1910;49.042;9.028;2023-11-19T02:49:58;2.95;;;2.15;;
3789;SDS011;1910;49.042;9.028;2023-11-19T02:52:24;2.90;;;1.87;;
3789;SDS011;1910;49.042;9.028;2023-11-19T02:54:50;3.17;;;2.17;;
3789;SDS011;1910;49.042;9.028;2023-11-19T02:57:18;2.95;;;2.30;;
3789;SDS011;1910;49.042;9.028;2023-11-19T02:59:46;4.53;;;2.97;;
3789;SDS011;1910;49.042;9.028;2023-11-19T03:02:11;2.03;;;1.77;;
3789;SDS011;1910;49.042;9.028;2023-11-19T03:04:38;4.27;;;1.73;;
3789;SDS011;1910;49.042;9.028;2023-11-19T03:07:04;3.22;;;1.75;;
3789;SDS011;1910;49.042;9.028;2023-11-19T03:09:32;6.20;;;2.85;;
3789;SDS011;1910;49.042;9.028;2023-11-19T03:11:58;5.32;;;2.65;;
3789;SDS011;1910;49.042;9.028;2023-11-19T03:14:24;2.73;;;1.77;;
3789;SDS011;1910;49.042;9.028;2023-11-19T03:16:49;1.93;;;1.40;;
3789;SDS011;1910;49.042;9.028;2023-11-19T03:19:15;3.85;;;2.78;;
3789;SDS011;1910;49.042;9.028;2023-11-19T03:21:42;4.00;;;2.03;;
3789;SDS011;1910;49.042;9.028;2023-11-19T03:24:07;2.50;;;2.00;;
3789;SDS011;1910;49.042;9.028;2023-11-19T03:26:34;2.37;;;1.50;;
3789;SDS011;1910;49.042;9.028;2023-11-19T03:28:59;1.88;;;1.02;;
3789;SDS011;1910;49.042;9.028;2023-11-19T03:31:25;3.80;;;1.77;;
3789;SDS011;1910;49.042;9.028;2023-11-19T03:33:51;1.90;;;1.00;;
3789;SDS011;1910;49.042;9.028;2023-11-19T03:36:16;1.33;;;1.10;;
3789;SDS011;1910;49.042;9.028;2023-11-19T03:38:42;1.00;;;0.90;;
3789;SDS011;1910;49.042;9.028;2023-11-19T03:41:11;0.40;;;0.30;;
3789;SDS011;1910;49.042;9.028;2023-11-19T03:43:41;0.30;;;0.20;;
3789;SDS011;1910;49.042;9.028;2023-11-19T03:46:19;0.50;;;0.37;;
3789;SDS011;1910;49.042;9.028;2023-11-19T03:48:48;0.30;;;0.30;;
3789;SDS011;1910;49.042;9.028;2023-11-19T03:51:15;0.40;;;0.40;;
3789;SDS011;1910;49.042;9.028;2023-11-19T03:53:45;0.98;;;0.82;;
3789;SDS011;1910;49.042;9.028;2023-11-19T03:56:11;0.40;;;0.30;;
3789;SDS011;1910;49.042;9.028;2023-11-19T03:58:37;0.40;;;0.30;;
3789;SDS011;1910;49.042;9.028;2023-11-19T04:01:03;0.50;;;0.43;;
3789;SDS011;1910;49.042;9.028;2023-11-19T04:03:29;0.30;;;0.20;;
3789;SDS011;1910;49.042;9.028;2023-11-19T04:05:55;0.30;;;0.30;;
3789;SDS011;1910;49.042;9.028;2023-11-19T04:08:45;0.40;;;0.40;;
3789;SDS011;1910;49.042;9.028;2023-11-19T04:11:11;0.40;;;0.30;;
3789;SDS011;1910;49.042;9.028;2023-11-19T04:13:36;0.40;;;0.30;;
3789;SDS011;1910;49.042;9.028;2023-11-19T04:16:02;0.30;;;0.20;;
3789;SDS011;1910;49.042;9.028;2023-11-19T04:18:28;0.40;;;0.30;;
3789;SDS011;1910;49.042;9.028;2023-11-19T04:20:53;0.40;;;0.27;;
3789;SDS011;1910;49.042;9.028;2023-11-19T04:23:19;0.40;;;0.30;;
3789;SDS011;1910;49.042;9.028;2023-11-19T04:25:44;0.40;;;0.40;;
3789;SDS011;1910;49.042;9.028;2023-11-19T04:28:10;0.40;;;0.30;;
3789;SDS011;1910;49.042;9.028;2023-11-19T04:30:35;0.73;;;0.40;;
3789;SDS011;1910;49.042;9.028;2023-11-19T04:33:02;0.40;;;0.32;;
3789;SDS011;1910;49.042;9.028;2023-11-19T04:35:28;0.40;;;0.30;;
3789;SDS011;1910;49.042;9.028;2023-11-19T04:37:53;0.40;;;0.30;;
3789;SDS011;1910;49.042;9.028;2023-11-19T04:40:22;0.60;;;0.30;;
3789;SDS011;1910;49.042;9.028;2023-11-19T04:42:49;0.65;;;0.43;;
3789;SDS011;1910;49.042;9.028;2023-11-19T04:45:14;0.40;;;0.40;;
3789;SDS011;1910;49.042;9.028;2023-11-19T04:47:41;0.52;;;0.45;;
3789;SDS011;1910;49.042;9.028;2023-11-19T04:50:07;0.40;;;0.20;;
3789;SDS011;1910;49.042;9.028;2023-11-19T04:52:36;0.50;;;0.40;;
3789;SDS011;1910;49.042;9.028;2023-11-19T04:55:05;0.40;;;0.30;;
3789;SDS011;1910;49.042;9.028;2023-11-19T04:57:31;0.30;;;0.20;;
3789;SDS011;1910;49.042;9.028;2023-11-19T04:59:57;0.40;;;0.30;;
3789;SDS011;1910;49.042;9.028;2023-11-19T05:02:23;0.40;;;0.40;;
3789;SDS011;1910;49.042;9.028;2023-11-19T05:04:48;0.70;;;0.50;;
3789;SDS011;1910;49.042;9.028;2023-11-19T05:07:14;0.37;;;0.27;;
3789;SDS011;1910;49.042;9.028;2023-11-19T05:09:39;0.40;;;0.30;;
3789;SDS011;1910;49.042;9.028;2023-11-19T05:12:05;0.43;;;0.30;;
3789;SDS011;1910;49.042;9.028;2023-11-19T05:14:34;0.70;;;0.60;;
3789;SDS011;1910;49.042;9.028;2023-11-19T05:17:00;0.60;;;0.40;;
3789;SDS011;1910;49.042;9.028;2023-11-19T05:19:25;0.97;;;0.40;;
3789;SDS011;1910;49.042;9.028;2023-11-19T05:21:51;0.40;;;0.30;;
3789;SDS011;1910;49.042;9.028;2023-11-19T05:24:17;1.35;;;0.55;;
3789;SDS011;1910;49.042;9.028;2023-11-19T05:26:43;0.60;;;0.40;;
3789;SDS011;1910;49.042;9.028;2023-11-19T05:29:08;0.30;;;0.30;;
3789;SDS011;1910;49.042;9.028;2023-11-19T05:31:34;0.60;;;0.40;;
3789;SDS011;1910;49.042;9.028;2023-11-19T05:33:59;0.40;;;0.30;;
3789;SDS011;1910;49.042;9.028;2023-11-19T05:36:25;0.70;;;0.70;;
3789;SDS011;1910;49.042;9.028;2023-11-19T05:38:50;0.63;;;0.30;;
3789;SDS011;1910;49.042;9.028;2023-11-19T05:41:16;0.67;;;0.67;;
3789;SDS011;1910;49.042;9.028;2023-11-19T05:43:42;0.70;;;0.60;;
3789;SDS011;1910;49.042;9.028;2023-11-19T05:46:07;0.77;;;0.77;;
3789;SDS011;1910;49.042;9.028;2023-11-19T05:48:33;0.88;;;0.60;;
3789;SDS011;1910;49.042;9.028;2023-11-19T05:50:59;0.67;;;0.67;;
3789;SDS011;1910;49.042;9.028;2023-11-19T05:53:25;0.53;;;0.53;;
3789;SDS011;1910;49.042;9.028;2023-11-19T05:55:50;0.57;;;0.40;;
3789;SDS011;1910;49.042;9.028;2023-11-19T05:58:25;0.43;;;0.40;;
3789;SDS011;1910;49.042;9.028;2023-11-19T06:00:54;0.40;;;0.30;;
3789;SDS011;1910;49.042;9.028;2023-11-19T06:03:20;4.83;;;0.73;;
3789;SDS011;1910;49.042;9.028;2023-11-19T06:05:46;0.40;;;0.30;;
3789;SDS011;1910;49.042;9.028;2023-11-19T06:08:12;0.50;;;0.40;;
3789;SDS011;1910;49.042;9.028;2023-11-19T06:10:40;0.50;;;0.30;;
3789;SDS011;1910;49.042;9.028;2023-11-19T06:13:06;1.08;;;0.70;;
3789;SDS011;1910;49.042;9.028;2023-11-19T06:15:34;0.87;;;0.50;;
3789;SDS011;1910;49.042;9.028;2023-11-19T06:18:01;0.73;;;0.60;;
3789;SDS011;1910;49.042;9.028;2023-11-19T06:20:28;0.70;;;0.70;;
3789;SDS011;1910;49.042;9.028;2023-11-19T06:22:57;0.70;;;0.40;;
3789;SDS011;1910;49.042;9.028;2023-11-19T06:25:23;1.20;;;0.50;;
3789;SDS011;1910;49.042;9.028;2023-11-19T06:27:49;0.40;;;0.30;;
3789;SDS011;1910;49.042;9.028;2023-11-19T06:30:15;0.40;;;0.30;;
3789;SDS011;1910;49.042;9.028;2023-11-19T06:32:40;1.53;;;0.77;;
3789;SDS011;1910;49.042;9.028;2023-11-19T06:35:06;1.80;;;0.60;;
3789;SDS011;1910;49.042;9.028;2023-11-19T06:37:32;0.67;;;0.30;;
3789;SDS011;1910;49.042;9.028;2023-11-19T06:39:58;2.20;;;0.67;;
3789;SDS011;1910;49.042;9.028;2023-11-19T06:42:24;0.40;;;0.30;;
3789;SDS011;1910;49.042;9.028;2023-11-19T06:44:49;0.30;;;0.20;;
3789;SDS011;1910;49.042;9.028;2023-11-19T06:47:16;3.88;;;0.45;;
3789;SDS011;1910;49.042;9.028;2023-11-19T06:49:43;0.40;;;0.30;;
3789;SDS011;1910;49.042;9.028;2023-11-19T06:52:09;0.40;;;0.40;;
3789;SDS011;1910;49.042;9.028;2023-11-19T06:54:34;2.50;;;0.30;;
3789;SDS011;1910;49.042;9.028;2023-11-19T06:57:00;0.40;;;0.20;;
3789;SDS011;1910;49.042;9.028;2023-11-19T06:59:26;0.40;;;0.30;;
3789;SDS011;1910;49.042;9.028;2023-11-19T07:01:51;0.80;;;0.47;;
3789;SDS011;1910;49.042;9.028;2023-11-19T07:04:17;0.93;;;0.80;;
3789;SDS011;1910;49.042;9.028;2023-11-19T07:06:42;0.40;;;0.30;;
3789;SDS011;1910;49.042;9.028;2023-11-19T07:09:08;0.30;;;0.30;;
3789;SDS011;1910;49.042;9.028;2023-11-19T07:11:37;0.40;;;0.30;;
3789;SDS011;1910;49.042;9.028;2023-11-19T07:14:07;0.70;;;0.40;;
3789;SDS011;1910;49.042;9.028;2023-11-19T07:16:33;0.45;;;0.43;;
3789;SDS011;1910;49.042;9.028;2023-11-19T07:19:02;0.50;;;0.37;;
3789;SDS011;1910;49.042;9.028;2023-11-19T07:21:28;0.40;;;0.30;;
3789;SDS011;1910;49.042;9.028;2023-11-19T07:23:54;0.40;;;0.30;;
3789;SDS011;1910;49.042;9.028;2023-11-19T07:26:21;0.57;;;0.55;;
3789;SDS011;1910;49.042;9.028;2023-11-19T07:28:46;5.73;;;0.53;;
3789;SDS011;1910;49.042;9.028;2023-11-19T07:31:12;0.73;;;0.50;;
3789;SDS011;1910;49.042;9.028;2023-11-19T07:33:39;0.50;;;0.33;;
3789;SDS011;1910;49.042;9.028;2023-11-19T07:36:07;1.87;;;0.37;;
3789;SDS011;1910;49.042;9.028;2023-11-19T07:38:36;0.47;;;0.37;;
3789;SDS011;1910;49.042;9.028;2023-11-19T07:41:03;0.43;;;0.40;;
3789;SDS011;1910;49.042;9.028;2023-11-19T07:43:30;0.63;;;0.30;;
3789;SDS011;1910;49.042;9.028;2023-11-19T07:45:56;0.70;;;0.40;;
3789;SDS011;1910;49.042;9.028;2023-11-19T07:48:24;1.00;;;0.60;;
3789;SDS011;1910;49.042;9.028;2023-11-19T07:50:50;0.40;;;0.30;;
3789;SDS011;1910;49.042;9.028;2023-11-19T07:53:18;0.40;;;0.30;;
3789;SDS011;1910;49.042;9.028;2023-11-19T07:55:45;0.40;;;0.40;;
3789;SDS011;1910;49.042;9.028;2023-11-19T07:58:11;0.50;;;0.43;;
3789;SDS011;1910;49.042;9.028;2023-11-19T08:00:37;1.17;;;0.90;;
3789;SDS011;1910;49.042;9.028;2023-11-19T08:03:03;0.90;;;0.60;;
3789;SDS011;1910;49.042;9.028;2023-11-19T08:05:29;5.53;;;2.37;;
3789;SDS011;1910;49.042;9.028;2023-11-19T08:07:56;0.80;;;0.63;;
3789;SDS011;1910;49.042;9.028;2023-11-19T08:10:21;0.40;;;0.40;;
3789;SDS011;1910;49.042;9.028;2023-11-19T08:12:47;4.60;;;0.60;;
3789;SDS011;1910;49.042;9.028;2023-11-19T08:15:13;0.50;;;0.50;;
3789;SDS011;1910;49.042;9.028;2023-11-19T08:17:39;0.60;;;0.60;;
3789;SDS011;1910;49.042;9.028;2023-11-19T08:20:05;0.40;;;0.40;;
3789;SDS011;1910;49.042;9.028;2023-11-19T08:22:35;0.40;;;0.30;;
3789;SDS011;1910;49.042;9.028;2023-11-19T08:25:06;0.73;;;0.60;;
3789;SDS011;1910;49.042;9.028;2023-11-19T08:27:33;0.40;;;0.30;;
3789;SDS011;1910;49.042;9.028;2023-11-19T08:29:58;0.80;;;0.50;;
3789;SDS011;1910;49.042;9.028;2023-11-19T08:32:24;2.20;;;0.87;;
3789;SDS011;1910;49.042;9.028;2023-11-19T08:34:51;2.50;;;0.50;;
3789;SDS011;1910;49.042;9.028;2023-11-19T08:37:16;0.60;;;0.30;;
3789;SDS011;1910;49.042;9.028;2023-11-19T08:39:47;0.67;;;0.50;;
3789;SDS011;1910;49.042;9.028;2023-11-19T08:42:13;0.30;;;0.20;;
3789;SDS011;1910;49.042;9.028;2023-11-19T08:44:38;0.77;;;0.30;;
3789;SDS011;1910;49.042;9.028;2023-11-19T08:47:04;0.40;;;0.20;;
3789;SDS011;1910;49.042;9.028;2023-11-19T08:49:31;0.60;;;0.40;;
3789;SDS011;1910;49.042;9.028;2023-11-19T08:51:57;0.60;;;0.30;;
3789;SDS011;1910;49.042;9.028;2023-11-19T08:54:23;0.40;;;0.30;;
3789;SDS011;1910;49.042;9.028;2023-11-19T08:56:48;1.37;;;0.40;;
3789;SDS011;1910;49.042;9.028;2023-11-19T08:59:15;0.50;;;0.30;;
3789;SDS011;1910;49.042;9.028;2023-11-19T09:01:41;0.40;;;0.30;;
3789;SDS011;1910;49.042;9.028;2023-11-19T09:04:07;0.60;;;0.30;;
3789;SDS011;1910;49.042;9.028;2023-11-19T09:06:32;0.40;;;0.40;;
3789;SDS011;1910;49.042;9.028;2023-11-19T09:08:58;6.57;;;1.03;;
3789;SDS011;1910;49.042;9.028;2023-11-19T09:11:27;0.40;;;0.20;;
3789;SDS011;1910;49.042;9.028;2023-11-19T09:13:56;0.40;;;0.20;;
3789;SDS011;1910;49.042;9.028;2023-11-19T09:16:22;1.90;;;0.67;;
3789;SDS011;1910;49.042;9.028;2023-11-19T09:18:47;0.40;;;0.30;;
3789;SDS011;1910;49.042;9.028;2023-11-19T09:21:13;0.40;;;0.30;;
3789;SDS011;1910;49.042;9.028;2023-11-19T09:23:38;0.63;;;0.33;;
3789;SDS011;1910;49.042;9.028;2023-11-19T09:26:05;0.60;;;0.40;;
3789;SDS011;1910;49.042;9.028;2023-11-19T09:28:31;0.80;;;0.60;;
3789;SDS011;1910;49.042;9.028;2023-11-19T09:30:57;0.67;;;0.60;;
3789;SDS011;1910;49.042;9.028;2023-11-19T09:33:23;0.50;;;0.40;;
3789;SDS011;1910;49.042;9.028;2023-11-19T09:35:49;0.83;;;0.57;;
3789;SDS011;1910;49.042;9.028;2023-11-19T09:38:15;0.40;;;0.40;;
3789;SDS011;1910;49.042;9.028;2023-11-19T09:40:41;0.83;;;0.60;;
3789;SDS011;1910;49.042;9.028;2023-11-19T09:43:07;1.13;;;0.53;;
3789;SDS011;1910;49.042;9.028;2023-11-19T09:45:48;0.87;;;0.40;;
3789;SDS011;1910;49.042;9.028;2023-11-19T09:48:16;0.40;;;0.30;;
3789;SDS011;1910;49.042;9.028;2023-11-19T09:50:45;0.60;;;0.50;;
3789;SDS011;1910;49.042;9.028;2023-11-19T09:53:12;0.70;;;0.37;;
3789;SDS011;1910;49.042;9.028;2023-11-19T09:55:41;0.50;;;0.43;;
3789;SDS011;1910;49.042;9.028;2023-11-19T09:58:08;1.00;;;0.50;;
3789;SDS011;1910;49.042;9.028;2023-11-19T10:00:36;0.50;;;0.30;;
3789;SDS011;1910;49.042;9.028;2023-11-19T10:03:03;0.60;;;0.33;;
3789;SDS011;1910;49.042;9.028;2023-11-19T10:05:33;0.87;;;0.50;;
3789;SDS011;1910;49.042;9.028;2023-11-19T10:07:58;0.50;;;0.40;;
3789;SDS011;1910;49.042;9.028;2023-11-19T10:10:24;0.50;;;0.40;;
3789;SDS011;1910;49.042;9.028;2023-11-19T10:12:53;0.60;;;0.40;;
3789;SDS011;1910;49.042;9.028;2023-11-19T10:15:23;1.50;;;0.30;;
3789;SDS011;1910;49.042;9.028;2023-11-19T10:17:56;1.00;;;0.43;;
3789;SDS011;1910;49.042;9.028;2023-11-19T10:20:22;0.80;;;0.40;;
3789;SDS011;1910;49.042;9.028;2023-11-19T10:22:48;1.07;;;0.50;;
3789;SDS011;1910;49.042;9.028;2023-11-19T10:25:24;0.47;;;0.37;;
3789;SDS011;1910;49.042;9.028;2023-11-19T10:27:53;0.50;;;0.30;;
3789;SDS011;1910;49.042;9.028;2023-11-19T10:30:22;0.50;;;0.30;;
3789;SDS011;1910;49.042;9.028;2023-11-19T10:35:36;1.07;;;0.33;;
3789;SDS011;1910;49.042;9.028;2023-11-19T10:38:19;0.57;;;0.37;;
3789;SDS011;1910;49.042;9.028;2023-11-19T10:40:47;0.93;;;0.40;;
3789;SDS011;1910;49.042;9.028;2023-11-19T10:43:12;1.80;;;0.40;;
3789;SDS011;1910;49.042;9.028;2023-11-19T10:45:38;0.77;;;0.43;;
3789;SDS011;1910;49.042;9.028;2023-11-19T10:48:05;0.40;;;0.20;;
3789;SDS011;1910;49.042;9.028;2023-11-19T10:50:35;1.43;;;0.50;;
3789;SDS011;1910;49.042;9.028;2023-11-19T10:53:02;0.47;;;0.30;;
3789;SDS011;1910;49.042;9.028;2023-11-19T10:55:31;0.40;;;0.20;;
3789;SDS011;1910;49.042;9.028;2023-11-19T10:58:03;0.60;;;0.40;;
3789;SDS011;1910;49.042;9.028;2023-11-19T11:03:39;0.63;;;0.40;;
3789;SDS011;1910;49.042;9.028;2023-11-19T11:06:05;0.60;;;0.30;;
3789;SDS011;1910;49.042;9.028;2023-11-19T11:08:31;0.67;;;0.50;;
3789;SDS011;1910;49.042;9.028;2023-11-19T11:10:59;0.60;;;0.40;;
3789;SDS011;1910;49.042;9.028;2023-11-19T11:13:26;2.03;;;1.10;;
3789;SDS011;1910;49.042;9.028;2023-11-19T11:15:53;0.40;;;0.30;;
3789;SDS011;1910;49.042;9.028;2023-11-19T11:18:21;0.80;;;0.40;;
3789;SDS011;1910;49.042;9.028;2023-11-19T11:20:49;1.13;;;0.43;;
3789;SDS011;1910;49.042;9.028;2023-11-19T11:39:51;0.60;;;0.40;;
3789;SDS011;1910;49.042;9.028;2023-11-19T11:45:16;0.73;;;0.50;;
3789;SDS011;1910;49.042;9.028;2023-11-19T11:48:03;1.53;;;1.43;;
3789;SDS011;1910;49.042;9.028;2023-11-19T11:50:33;1.07;;;0.40;;
3789;SDS011;1910;49.042;9.028;2023-11-19T11:55:35;1.53;;;0.50;;
3789;SDS011;1910;49.042;9.028;2023-11-19T11:58:05;0.60;;;0.53;;
3789;SDS011;1910;49.042;9.028;2023-11-19T12:00:38;0.83;;;0.43;;
3789;SDS011;1910;49.042;9.028;2023-11-19T12:03:05;1.23;;;0.70;;
3789;SDS011;1910;49.042;9.028;2023-11-19T12:05:32;0.50;;;0.30;;
3789;SDS011;1910;49.042;9.028;2023-11-19T12:08:04;0.80;;;0.40;;
3789;SDS011;1910;49.042;9.028;2023-11-19T12:10:33;8.70;;;0.93;;
3789;SDS011;1910;49.042;9.028;2023-11-19T12:13:05;0.50;;;0.50;;
3789;SDS011;1910;49.042;9.028;2023-11-19T12:15:39;0.80;;;0.60;;
3789;SDS011;1910;49.042;9.028;2023-11-19T12:18:32;0.60;;;0.40;;
3789;SDS011;1910;49.042;9.028;2023-11-19T12:20:59;0.40;;;0.30;;
3789;SDS011;1910;49.042;9.028;2023-11-19T12:23:26;0.40;;;0.30;;
3789;SDS011;1910;49.042;9.028;2023-11-19T12:25:54;1.80;;;0.40;;
3789;SDS011;1910;49.042;9.028;2023-11-19T12:28:20;2.20;;;0.57;;
3789;SDS011;1910;49.042;9.028;2023-11-19T12:30:46;0.40;;;0.30;;
3789;SDS011;1910;49.042;9.028;2023-11-19T12:33:14;0.90;;;0.40;;
3789;SDS011;1910;49.042;9.028;2023-11-19T12:35:40;3.50;;;0.50;;
3789;SDS011;1910;49.042;9.028;2023-11-19T12:38:06;0.63;;;0.50;;
3789;SDS011;1910;49.042;9.028;2023-11-19T12:40:31;1.57;;;0.43;;
3789;SDS011;1910;49.042;9.028;2023-11-19T12:42:57;3.03;;;0.50;;
3789;SDS011;1910;49.042;9.028;2023-11-19T12:45:24;0.63;;;0.40;;
3789;SDS011;1910;49.042;9.028;2023-11-19T12:47:50;0.40;;;0.30;;
3789;SDS011;1910;49.042;9.028;2023-11-19T12:50:29;1.17;;;0.40;;
3789;SDS011;1910;49.042;9.028;2023-11-19T12:53:18;1.93;;;0.50;;
3789;SDS011;1910;49.042;9.028;2023-11-19T12:55:45;0.60;;;0.43;;
3789;SDS011;1910;49.042;9.028;2023-11-19T12:58:10;2.10;;;0.57;;
3789;SDS011;1910;49.042;9.028;2023-11-19T13:00:58;0.40;;;0.30;;
3789;SDS011;1910;49.042;9.028;2023-11-19T13:03:31;0.60;;;0.37;;
3789;SDS011;1910;49.042;9.028;2023-11-19T13:06:04;2.00;;;0.60;;
3789;SDS011;1910;49.042;9.028;2023-11-19T13:08:43;0.50;;;0.40;;
3789;SDS011;1910;49.042;9.028;2023-11-19T13:11:09;1.30;;;0.60;;
3789;SDS011;1910;49.042;9.028;2023-11-19T13:16:21;1.33;;;0.70;;
3789;SDS011;1910;49.042;9.028;2023-11-19T13:18:47;3.63;;;0.50;;
3789;SDS011;1910;49.042;9.028;2023-11-19T13:21:12;0.73;;;0.50;;
3789;SDS011;1910;49.042;9.028;2023-11-19T13:23:38;0.40;;;0.30;;
3789;SDS011;1910;49.042;9.028;2023-11-19T13:26:04;2.20;;;0.60;;
3789;SDS011;1910;49.042;9.028;2023-11-19T13:28:29;3.20;;;0.63;;
3789;SDS011;1910;49.042;9.028;2023-11-19T13:30:56;2.13;;;0.80;;
3789;SDS011;1910;49.042;9.028;2023-11-19T13:33:21;0.50;;;0.30;;
3789;SDS011;1910;49.042;9.028;2023-11-19T13:35:48;4.10;;;1.07;;
3789;SDS011;1910;49.042;9.028;2023-11-19T13:38:13;0.90;;;0.90;;
3789;SDS011;1910;49.042;9.028;2023-11-19T13:40:39;0.90;;;0.70;;
3789;SDS011;1910;49.042;9.028;2023-11-19T13:43:05;4.43;;;2.70;;
3789;SDS011;1910;49.042;9.028;2023-11-19T13:45:32;0.40;;;0.23;;
3789;SDS011;1910;49.042;9.028;2023-11-19T13:47:57;0.70;;;0.60;;
3789;SDS011;1910;49.042;9.028;2023-11-19T13:50:23;0.70;;;0.40;;
3789;SDS011;1910;49.042;9.028;2023-11-19T13:52:49;0.60;;;0.60;;
3789;SDS011;1910;49.042;9.028;2023-11-19T13:55:41;0.50;;;0.30;;
3789;SDS011;1910;49.042;9.028;2023-11-19T13:58:08;0.80;;;0.40;;
3789;SDS011;1910;49.042;9.028;2023-11-19T14:00:41;0.80;;;0.47;;
3789;SDS011;1910;49.042;9.028;2023-11-19T14:03:08;0.50;;;0.40;;
3789;SDS011;1910;49.042;9.028;2023-11-19T14:05:37;0.40;;;0.30;;
3789;SDS011;1910;49.042;9.028;2023-11-19T14:08:03;0.60;;;0.30;;
3789;SDS011;1910;49.042;9.028;2023-11-19T14:10:36;0.80;;;0.77;;
3789;SDS011;1910;49.042;9.028;2023-11-19T14:13:06;0.40;;;0.30;;
3789;SDS011;1910;49.042;9.028;2023-11-19T14:15:33;2.00;;;0.50;;
3789;SDS011;1910;49.042;9.028;2023-11-19T14:17:59;1.53;;;0.53;;
3789;SDS011;1910;49.042;9.028;2023-11-19T14:20:24;0.83;;;0.57;;
3789;SDS011;1910;49.042;9.028;2023-11-19T14:22:51;0.50;;;0.33;;
3789;SDS011;1910;49.042;9.028;2023-11-19T14:25:21;0.60;;;0.53;;
3789;SDS011;1910;49.042;9.028;2023-11-19T14:27:49;0.70;;;0.30;;
3789;SDS011;1910;49.042;9.028;2023-11-19T14:30:15;5.13;;;0.97;;
3789;SDS011;1910;49.042;9.028;2023-11-19T14:32:41;0.50;;;0.37;;
3789;SDS011;1910;49.042;9.028;2023-11-19T14:35:10;0.67;;;0.40;;
3789;SDS011;1910;49.042;9.028;2023-11-19T14:37:36;4.17;;;0.50;;
3789;SDS011;1910;49.042;9.028;2023-11-19T14:40:02;0.40;;;0.30;;
3789;SDS011;1910;49.042;9.028;2023-11-19T14:42:31;8.33;;;0.43;;
3789;SDS011;1910;49.042;9.028;2023-11-19T14:44:56;0.93;;;0.80;;
3789;SDS011;1910;49.042;9.028;2023-11-19T14:47:22;2.80;;;0.70;;
3789;SDS011;1910;49.042;9.028;2023-11-19T14:49:49;0.40;;;0.30;;
3789;SDS011;1910;49.042;9.028;2023-11-19T14:52:15;9.40;;;0.83;;
3789;SDS011;1910;49.042;9.028;2023-11-19T14:54:41;2.30;;;0.70;;
3789;SDS011;1910;49.042;9.028;2023-11-19T14:57:07;1.53;;;0.80;;
3789;SDS011;1910;49.042;9.028;2023-11-19T14:59:33;0.80;;;0.50;;
3789;SDS011;1910;49.042;9.028;2023-11-19T15:02:00;0.40;;;0.30;;
3789;SDS011;1910;49.042;9.028;2023-11-19T15:04:28;0.50;;;0.40;;
3789;SDS011;1910;49.042;9.028;2023-11-19T15:06:56;0.50;;;0.40;;
3789;SDS011;1910;49.042;9.028;2023-11-19T15:09:22;0.90;;;0.40;;
3789;SDS011;1910;49.042;9.028;2023-11-19T15:11:48;0.50;;;0.40;;
3789;SDS011;1910;49.042;9.028;2023-11-19T15:14:13;0.60;;;0.40;;
3789;SDS011;1910;49.042;9.028;2023-11-19T15:16:42;0.93;;;0.50;;
3789;SDS011;1910;49.042;9.028;2023-11-19T15:19:08;0.50;;;0.30;;
3789;SDS011;1910;49.042;9.028;2023-11-19T15:21:34;0.77;;;0.47;;
3789;SDS011;1910;49.042;9.028;2023-11-19T15:24:00;1.93;;;0.70;;
3789;SDS011;1910;49.042;9.028;2023-11-19T15:26:29;1.50;;;0.47;;
3789;SDS011;1910;49.042;9.028;2023-11-19T15:28:55;1.50;;;0.80;;
3789;SDS011;1910;49.042;9.028;2023-11-19T15:31:22;0.80;;;0.70;;
3789;SDS011;1910;49.042;9.028;2023-11-19T15:33:49;0.40;;;0.30;;
3789;SDS011;1910;49.042;9.028;2023-11-19T15:36:17;0.70;;;0.40;;
3789;SDS011;1910;49.042;9.028;2023-11-19T15:38:42;2.97;;;0.70;;
3789;SDS011;1910;49.042;9.028;2023-11-19T15:41:10;0.80;;;0.50;;
3789;SDS011;1910;49.042;9.028;2023-11-19T15:43:35;0.87;;;0.30;;
3789;SDS011;1910;49.042;9.028;2023-11-19T15:46:05;0.97;;;0.50;;
3789;SDS011;1910;49.042;9.028;2023-11-19T15:48:39;0.87;;;0.60;;